createdAt,value
2022-11-01T00:03:44.416Z,7.88
2022-11-01T00:07:47.257Z,9.48
2022-11-01T00:11:50.264Z,12.45
2022-11-01T00:15:52.948Z,9.07
2022-11-01T00:19:55.992Z,8.45
2022-11-01T00:23:58.769Z,7.22
2022-11-01T00:28:02.096Z,11.80
2022-11-01T00:32:05.196Z,8.05
2022-11-01T00:36:08.985Z,6.07
2022-11-01T00:40:12.246Z,6.85
2022-11-01T00:44:15.133Z,7.07
2022-11-01T00:48:17.951Z,7.55
2022-11-01T00:52:20.995Z,8.93
2022-11-01T00:56:23.761Z,7.88
2022-11-01T01:00:26.601Z,11.65
2022-11-01T01:04:29.435Z,15.55
2022-11-01T01:08:32.423Z,12.30
2022-11-01T01:12:35.426Z,18.23
2022-11-01T01:16:38.366Z,10.18
2022-11-01T01:20:41.251Z,7.97
2022-11-01T01:24:45.799Z,9.60
2022-11-01T01:28:48.597Z,7.40
2022-11-01T01:32:51.501Z,7.75
2022-11-01T01:36:54.269Z,8.13
2022-11-01T01:41:20.188Z,12.23
2022-11-01T01:45:36.240Z,11.55
2022-11-01T01:49:42.495Z,8.05
2022-11-01T01:53:49.269Z,9.38
2022-11-01T01:57:54.582Z,10.10
2022-11-01T02:01:59.185Z,7.45
2022-11-01T02:06:11.096Z,7.32
2022-11-01T02:10:15.888Z,6.78
2022-11-01T02:14:21.006Z,9.77
2022-11-01T02:18:45.301Z,6.63
2022-11-01T02:23:06.388Z,9.07
2022-11-01T02:27:20.801Z,6.40
2022-11-01T02:31:46.041Z,9.00
2022-11-01T02:36:13.585Z,6.85
2022-11-01T02:40:43.506Z,10.88
2022-11-01T02:44:53.831Z,11.43
2022-11-01T02:48:57.989Z,7.32
2022-11-01T02:53:02.028Z,9.45
2022-11-01T02:57:36.470Z,9.00
2022-11-01T03:01:50.958Z,7.30
2022-11-01T03:06:11.679Z,8.27
2022-11-01T03:10:14.959Z,8.45
2022-11-01T03:15:02.709Z,5.85
2022-11-01T03:19:36.918Z,11.63
2022-11-01T03:23:49.955Z,7.22
2022-11-01T03:27:53.797Z,9.25
2022-11-01T03:31:58.071Z,10.20
2022-11-01T03:36:13.514Z,11.93
2022-11-01T03:40:18.796Z,9.85
2022-11-01T03:44:22.146Z,8.60
2022-11-01T03:48:25.485Z,7.72
2022-11-01T03:52:28.292Z,7.35
2022-11-01T03:56:31.212Z,7.30
2022-11-01T04:00:37.500Z,9.40
2022-11-01T04:04:40.367Z,9.57
2022-11-01T04:08:43.224Z,6.63
2022-11-01T04:12:47.611Z,8.48
2022-11-01T04:17:08.928Z,11.88
2022-11-01T04:21:16.228Z,8.48
2022-11-01T04:25:19.036Z,7.32
2022-11-01T04:29:22.882Z,8.23
2022-11-01T04:33:25.694Z,9.48
2022-11-01T04:37:28.547Z,9.07
2022-11-01T04:41:31.471Z,9.98
2022-11-01T04:45:34.358Z,13.73
2022-11-01T04:49:37.350Z,7.55
2022-11-01T04:53:40.454Z,9.20
2022-11-01T04:57:44.433Z,8.23
2022-11-01T05:01:47.311Z,13.73
2022-11-01T05:05:50.470Z,9.45
2022-11-01T05:09:53.524Z,11.52
2022-11-01T05:13:57.310Z,10.70
2022-11-01T05:18:01.836Z,8.05
2022-11-01T05:22:05.195Z,12.07
2022-11-01T05:26:08.238Z,12.77
2022-11-01T05:30:11.587Z,11.10
2022-11-01T05:34:14.448Z,13.07
2022-11-01T05:38:17.275Z,10.05
2022-11-01T05:42:20.127Z,8.25
2022-11-01T05:46:23.703Z,8.73
2022-11-01T05:50:26.442Z,8.27
2022-11-01T05:54:29.851Z,12.02
2022-11-01T05:58:32.649Z,16.42
2022-11-01T06:02:35.514Z,11.52
2022-11-01T06:06:38.273Z,12.52
2022-11-01T06:10:41.041Z,10.40
2022-11-01T06:14:43.868Z,11.75
2022-11-01T06:18:46.927Z,10.20
2022-11-01T06:22:49.672Z,9.55
2022-11-01T06:26:52.409Z,9.60
2022-11-01T06:30:55.184Z,10.13
2022-11-01T06:34:58.107Z,10.32
2022-11-01T06:39:00.849Z,8.00
2022-11-01T06:43:06.182Z,10.13
2022-11-01T06:47:09.439Z,9.45
2022-11-01T06:51:12.258Z,11.57
2022-11-01T06:55:15.504Z,11.43
2022-11-01T06:59:18.488Z,13.07
2022-11-01T07:03:21.435Z,12.15
2022-11-01T07:07:24.425Z,10.65
2022-11-01T07:11:31.462Z,10.70
2022-11-01T07:15:35.448Z,10.32
2022-11-01T07:19:42.522Z,11.43
2022-11-01T07:23:45.585Z,11.30
2022-11-01T07:27:48.645Z,15.10
2022-11-01T07:31:51.493Z,14.18
2022-11-01T07:35:54.513Z,14.30
2022-11-01T07:39:57.661Z,12.60
2022-11-01T07:44:00.612Z,9.50
2022-11-01T07:48:10.537Z,13.75
2022-11-01T07:52:14.430Z,11.68
2022-11-01T07:56:17.434Z,10.45
2022-11-01T08:00:20.499Z,14.35
2022-11-01T08:04:24.693Z,10.70
2022-11-01T08:08:27.608Z,11.98
2022-11-01T08:12:30.388Z,11.98
2022-11-01T08:16:33.339Z,15.48
2022-11-01T08:20:36.421Z,26.48
2022-11-01T08:24:39.290Z,58.05
2022-11-01T08:28:42.885Z,54.08
2022-11-01T08:32:57.167Z,53.80
2022-11-01T08:37:00.071Z,57.83
2022-11-01T08:41:02.988Z,31.90
2022-11-01T08:45:07.508Z,27.60
2022-11-01T08:49:12.196Z,22.38
2022-11-01T08:53:15.449Z,22.25
2022-11-01T08:57:18.342Z,18.95
2022-11-01T09:01:24.122Z,14.05
2022-11-01T09:05:29.580Z,12.13
2022-11-01T09:09:32.810Z,17.25
2022-11-01T09:13:35.929Z,15.55
2022-11-01T09:17:39.117Z,17.85
2022-11-01T09:21:44.274Z,18.13
2022-11-01T09:25:47.155Z,23.58
2022-11-01T09:29:51.989Z,21.83
2022-11-01T09:33:57.179Z,17.63
2022-11-01T09:38:01.662Z,16.45
2022-11-01T09:42:11.072Z,26.92
2022-11-01T09:46:17.651Z,21.85
2022-11-01T09:54:42.814Z,16.77
2022-11-01T09:58:51.547Z,22.63
2022-11-01T10:03:33.860Z,22.30
2022-11-01T10:07:47.817Z,19.25
2022-11-01T10:12:11.774Z,16.70
2022-11-01T10:16:30.180Z,14.43
2022-11-01T10:20:39.219Z,18.10
2022-11-01T10:24:57.968Z,18.92
2022-11-01T10:29:13.975Z,17.15
2022-11-01T10:33:26.077Z,27.98
2022-11-01T10:38:04.338Z,19.90
2022-11-01T10:42:17.706Z,18.83
2022-11-01T10:46:30.000Z,17.00
2022-11-01T10:50:34.256Z,14.05
2022-11-01T10:54:41.216Z,19.25
2022-11-01T10:58:53.440Z,14.75
2022-11-01T11:02:58.793Z,18.63
2022-11-01T11:07:02.420Z,21.27
2022-11-01T11:11:10.908Z,21.30
2022-11-01T11:15:23.432Z,15.35
2022-11-01T11:19:39.032Z,12.68
2022-11-01T11:23:45.106Z,13.97
2022-11-01T11:27:53.104Z,10.10
2022-11-01T11:31:59.394Z,15.75
2022-11-01T11:36:03.599Z,10.60
2022-11-01T11:40:22.462Z,12.50
2022-11-01T11:44:34.458Z,17.67
2022-11-01T11:48:47.717Z,12.75
2022-11-01T11:53:26.458Z,10.57
2022-11-01T11:57:30.463Z,12.98
2022-11-01T12:01:34.472Z,11.75
2022-11-01T12:05:37.859Z,12.48
2022-11-01T12:09:45.404Z,10.77
2022-11-01T12:14:02.859Z,8.25
2022-11-01T12:18:19.532Z,10.70
2022-11-01T12:22:22.646Z,6.82
2022-11-01T12:26:27.392Z,6.85
2022-11-01T12:30:35.855Z,8.05
2022-11-01T12:34:42.923Z,6.05
2022-11-01T12:38:55.643Z,5.30
2022-11-01T12:43:24.156Z,7.35
2022-11-01T12:47:44.326Z,8.93
2022-11-01T12:51:56.058Z,7.03
2022-11-01T12:55:59.445Z,8.25
2022-11-01T13:00:02.668Z,5.50
2022-11-01T13:04:26.504Z,5.22
2022-11-01T13:08:59.117Z,8.68
2022-11-01T13:13:21.391Z,5.47
2022-11-01T13:17:34.316Z,5.90
2022-11-01T13:21:42.634Z,6.47
2022-11-01T13:26:20.512Z,7.43
2022-11-01T13:30:23.906Z,5.75
2022-11-01T13:35:06.812Z,4.43
2022-11-01T13:39:38.163Z,7.28
2022-11-01T13:43:51.488Z,7.03
2022-11-01T13:48:08.619Z,9.13
2022-11-01T13:52:28.829Z,7.85
2022-11-01T13:56:37.101Z,12.25
2022-11-01T14:00:45.189Z,7.93
2022-11-01T14:05:02.067Z,11.55
2022-11-01T14:09:26.144Z,8.68
2022-11-01T14:13:45.775Z,10.32
2022-11-01T14:17:52.516Z,6.70
2022-11-01T14:21:57.811Z,5.47
2022-11-01T14:26:20.089Z,8.13
2022-11-01T14:30:24.907Z,6.18
2022-11-01T14:34:35.435Z,6.78
2022-11-01T14:38:53.804Z,10.20
2022-11-01T14:43:11.627Z,8.30
2022-11-01T14:47:34.690Z,5.75
2022-11-01T14:51:41.980Z,6.18
2022-11-01T14:55:48.456Z,6.97
2022-11-01T14:59:52.097Z,6.00
2022-11-01T15:03:58.190Z,8.18
2022-11-01T15:08:01.571Z,5.43
2022-11-01T15:12:08.582Z,6.90
2022-11-01T15:20:21.676Z,5.97
2022-11-01T15:24:28.503Z,7.47
2022-11-01T15:28:41.322Z,12.60
2022-11-01T15:32:44.466Z,8.70
2022-11-01T15:36:50.151Z,8.75
2022-11-01T15:40:53.728Z,8.85
2022-11-01T15:45:26.773Z,13.95
2022-11-01T15:49:50.094Z,15.00
2022-11-01T15:54:01.264Z,12.02
2022-11-01T16:09:45.820Z,7.45
2022-11-01T16:14:08.759Z,9.80
2022-11-01T16:18:27.039Z,5.65
2022-11-01T16:22:39.052Z,8.88
2022-11-01T16:27:13.155Z,9.13
2022-11-01T16:31:42.992Z,5.05
2022-11-01T16:36:56.296Z,4.20
2022-11-01T16:41:26.807Z,5.95
2022-11-01T16:45:44.937Z,6.22
2022-11-01T16:50:45.799Z,6.15
2022-11-01T16:55:05.714Z,7.13
2022-11-01T16:59:34.823Z,7.93
2022-11-01T17:03:41.685Z,9.40
2022-11-01T17:07:46.002Z,10.43
2022-11-01T17:11:51.692Z,8.18
2022-11-01T17:15:59.773Z,8.65
2022-11-01T17:20:04.666Z,6.63
2022-11-01T17:24:19.940Z,7.22
2022-11-01T17:28:33.988Z,8.63
2022-11-01T17:33:36.338Z,6.72
2022-11-01T17:37:17.621Z,8.73
2022-11-01T17:41:21.861Z,5.85
2022-11-01T17:45:25.035Z,6.53
2022-11-01T17:49:28.081Z,4.78
2022-11-01T17:53:31.691Z,5.32
2022-11-01T17:57:37.288Z,9.03
2022-11-01T18:01:43.505Z,6.75
2022-11-01T18:05:47.586Z,5.15
2022-11-01T18:09:50.915Z,7.28
2022-11-01T18:14:18.285Z,8.73
2022-11-01T18:18:39.251Z,4.93
2022-11-01T18:22:45.291Z,5.00
2022-11-01T18:26:49.966Z,6.23
2022-11-01T18:31:02.192Z,5.10
2022-11-01T18:35:30.653Z,5.22
2022-11-01T18:39:48.300Z,5.68
2022-11-01T18:43:53.079Z,7.18
2022-11-01T18:48:26.043Z,6.00
2022-11-01T18:52:35.951Z,6.97
2022-11-01T18:56:51.827Z,6.88
2022-11-01T19:01:12.045Z,7.43
2022-11-01T19:05:19.097Z,8.95
2022-11-01T19:09:24.768Z,7.88
2022-11-01T19:13:34.954Z,7.47
2022-11-01T19:17:41.544Z,6.43
2022-11-01T19:21:44.820Z,7.88
2022-11-01T19:25:48.065Z,7.28
2022-11-01T19:29:57.676Z,6.32
2022-11-01T19:34:04.227Z,9.18
2022-11-01T19:38:14.654Z,9.40
2022-11-01T19:42:43.362Z,8.77
2022-11-01T19:46:46.079Z,13.73
2022-11-01T19:50:49.220Z,12.43
2022-11-01T19:54:53.376Z,11.98
2022-11-01T19:58:58.918Z,12.52
2022-11-01T20:03:06.295Z,11.68
2022-11-01T20:07:16.576Z,12.65
2022-11-01T20:11:20.055Z,10.80
2022-11-01T20:15:23.267Z,15.45
2022-11-01T20:19:29.556Z,17.87
2022-11-01T20:23:36.728Z,15.82
2022-11-01T20:27:40.194Z,7.80
2022-11-01T20:31:43.248Z,6.25
2022-11-01T20:35:46.200Z,6.90
2022-11-01T20:39:49.109Z,5.85
2022-11-01T20:43:51.924Z,9.85
2022-11-01T20:47:55.307Z,6.80
2022-11-01T20:52:13.427Z,5.50
2022-11-01T20:56:20.995Z,8.43
2022-11-01T21:00:23.881Z,6.35
2022-11-01T21:04:26.618Z,7.43
2022-11-01T21:08:33.615Z,7.72
2022-11-01T21:12:50.090Z,12.25
2022-11-01T21:21:01.519Z,13.95
2022-11-01T21:25:08.116Z,11.13
2022-11-01T21:29:27.308Z,9.90
2022-11-01T21:33:38.014Z,7.55
2022-11-01T21:37:40.829Z,8.80
2022-11-01T21:41:48.644Z,8.07
2022-11-01T21:45:51.880Z,8.27
2022-11-01T21:49:54.600Z,5.80
2022-11-01T21:54:00.184Z,6.05
2022-11-01T21:58:06.256Z,5.88
2022-11-01T22:02:11.868Z,5.90
2022-11-01T22:06:15.230Z,10.32
2022-11-01T22:10:18.085Z,7.90
2022-11-01T22:14:21.547Z,7.68
2022-11-01T22:18:25.376Z,6.30
2022-11-01T22:22:28.140Z,5.25
2022-11-01T22:26:30.982Z,9.75
2022-11-01T22:30:33.742Z,7.80
2022-11-01T22:34:36.489Z,8.18
2022-11-01T22:38:44.323Z,6.63
2022-11-01T22:42:57.375Z,5.63
2022-11-01T22:47:02.017Z,7.65
2022-11-01T22:51:17.134Z,6.20
2022-11-01T22:55:25.348Z,7.45
2022-11-01T22:59:33.827Z,9.18
2022-11-01T23:03:39.956Z,5.78
2022-11-01T23:07:46.503Z,5.80
2022-11-01T23:12:13.327Z,6.70
2022-11-01T23:16:32.712Z,7.25
2022-11-01T23:20:35.667Z,10.82
2022-11-01T23:24:38.338Z,12.15
2022-11-01T23:28:46.491Z,14.57
2022-11-01T23:32:49.240Z,10.15
2022-11-01T23:36:52.348Z,6.93
2022-11-01T23:40:55.189Z,7.90
2022-11-01T23:44:58.436Z,9.20
2022-11-01T23:49:10.055Z,6.68
2022-11-01T23:53:14.897Z,8.38
2022-11-01T23:57:20.669Z,6.97
